Time;durP1;ratioP1;P1;durP2;ratioP2;P2;SDS_P1;SDS_P2;PMS_P1;PMS_P2;Temp;Humidity;BMP_temperature;BMP_pressure;BME280_temperature;BME280_humidity;BME280_pressure;Samples;Min_cycle;Max_cycle;Signal;HPM_P1;HPM_P2
2021/11/06 00:01:26;;;;;;;3.75;3.10;;;8.00;99.90;;;;;;5065782;28;20078;-43
2021/11/06 00:03:52;;;;;;;5.57;3.20;;;7.90;99.90;;;;;;5058921;28;20052;-43
2021/11/06 00:06:17;;;;;;;5.93;3.58;;;7.90;99.90;;;;;;5068287;28;20028;-43
2021/11/06 00:08:43;;;;;;;5.38;3.47;;;7.90;99.90;;;;;;5057464;28;20032;-43
2021/11/06 00:11:09;;;;;;;4.93;3.42;;;7.90;99.90;;;;;;5069140;28;20043;-43
2021/11/06 00:13:34;;;;;;;5.97;3.30;;;7.90;99.90;;;;;;5056943;28;20043;-43
2021/11/06 00:16:00;;;;;;;6.32;3.45;;;7.80;99.90;;;;;;5068980;28;20047;-43
2021/11/06 00:18:25;;;;;;;4.50;3.00;;;7.80;99.90;;;;;;5056377;28;20044;-43
2021/11/06 00:20:51;;;;;;;5.07;3.25;;;7.80;99.90;;;;;;5069030;28;20112;-43
2021/11/06 00:23:20;;;;;;;5.78;3.55;;;7.80;99.90;;;;;;5057189;28;20110;-43
2021/11/06 00:25:45;;;;;;;4.82;3.85;;;7.70;99.90;;;;;;5068319;28;20035;-43
2021/11/06 00:28:11;;;;;;;4.22;3.22;;;7.70;99.90;;;;;;5060079;28;20025;-43
2021/11/06 00:30:36;;;;;;;5.20;3.30;;;7.70;99.90;;;;;;5064869;28;20028;-43
2021/11/06 00:33:02;;;;;;;5.00;3.55;;;7.60;99.90;;;;;;5055574;28;20124;-43
2021/11/06 00:35:28;;;;;;;4.97;3.78;;;7.50;99.90;;;;;;5062719;28;20048;-43
2021/11/06 00:37:54;;;;;;;4.40;3.58;;;7.50;99.90;;;;;;5064208;28;20055;-43
2021/11/06 00:40:19;;;;;;;4.75;3.35;;;7.50;99.90;;;;;;5060636;28;20033;-43
2021/11/06 00:42:46;;;;;;;7.13;3.70;;;7.50;99.90;;;;;;5066651;28;20017;-43
2021/11/06 00:45:12;;;;;;;4.60;3.88;;;7.50;99.90;;;;;;5046076;28;20056;-43
2021/11/06 00:47:38;;;;;;;6.72;3.47;;;7.50;99.90;;;;;;5066938;28;20032;-43
2021/11/06 00:50:07;;;;;;;3.95;3.50;;;7.50;99.90;;;;;;5057878;28;20032;-42
2021/11/06 00:52:32;;;;;;;4.20;3.15;;;7.50;99.90;;;;;;5067269;28;20039;-43
2021/11/06 00:54:58;;;;;;;6.07;3.80;;;7.50;99.90;;;;;;5056462;28;20021;-43
2021/11/06 00:57:24;;;;;;;6.43;3.72;;;7.50;99.90;;;;;;5068165;28;20052;-42
2021/11/06 00:59:49;;;;;;;7.95;4.38;;;7.50;99.90;;;;;;5055337;28;20608;-43
2021/11/06 01:02:15;;;;;;;7.38;3.60;;;7.50;99.90;;;;;;5068399;28;20024;-42
2021/11/06 01:04:41;;;;;;;5.53;3.80;;;7.50;99.90;;;;;;5056146;28;20103;-43
2021/11/06 01:07:07;;;;;;;5.85;4.13;;;7.50;99.90;;;;;;5067662;28;20036;-43
2021/11/06 01:09:32;;;;;;;5.68;4.22;;;7.50;99.90;;;;;;5059051;28;20078;-42
2021/11/06 01:11:58;;;;;;;5.60;4.57;;;7.50;99.90;;;;;;5063014;28;20241;-43
2021/11/06 01:14:23;;;;;;;6.88;4.05;;;7.50;99.90;;;;;;5061535;28;20174;-42
2021/11/06 01:16:49;;;;;;;5.53;3.90;;;7.50;99.90;;;;;;5062033;28;20105;-43
2021/11/06 01:19:14;;;;;;;5.15;3.90;;;7.50;99.90;;;;;;5063468;28;20039;-47
2021/11/06 01:21:40;;;;;;;6.25;4.15;;;7.60;99.90;;;;;;5059042;28;20615;-41
2021/11/06 01:24:06;;;;;;;6.20;3.92;;;7.50;99.90;;;;;;5067067;28;20028;-43
2021/11/06 01:26:31;;;;;;;8.15;4.78;;;7.60;99.90;;;;;;5056070;28;20047;-43
2021/11/06 01:28:57;;;;;;;6.88;4.70;;;7.60;99.90;;;;;;5066775;28;20073;-42
2021/11/06 01:31:23;;;;;;;7.80;5.55;;;7.60;99.90;;;;;;5052648;28;20033;-43
2021/11/06 01:33:48;;;;;;;5.88;4.57;;;7.60;99.90;;;;;;5046975;28;20043;-43
2021/11/06 01:36:15;;;;;;;10.50;5.50;;;7.60;99.90;;;;;;5055551;28;20024;-41
2021/11/06 01:38:43;;;;;;;7.00;4.63;;;7.60;99.90;;;;;;5067726;28;20021;-43
2021/11/06 01:41:09;;;;;;;8.75;5.88;;;7.60;99.90;;;;;;5054747;28;20033;-43
2021/11/06 01:43:35;;;;;;;5.45;4.68;;;7.70;99.90;;;;;;5067390;28;20115;-43
2021/11/06 01:46:03;;;;;;;9.60;6.57;;;7.70;99.90;;;;;;5056172;28;20108;-43
2021/11/06 01:48:29;;;;;;;9.38;6.60;;;7.70;99.90;;;;;;5065783;28;20032;-43
2021/11/06 01:50:56;;;;;;;8.38;6.40;;;7.70;99.90;;;;;;5058545;28;20021;-43
2021/11/06 01:53:22;;;;;;;10.05;5.97;;;7.70;99.90;;;;;;5064228;28;20141;-43
2021/11/06 01:55:51;;;;;;;8.23;6.32;;;7.70;99.90;;;;;;5059419;28;20075;-43
2021/11/06 01:58:20;;;;;;;10.35;6.95;;;7.70;99.90;;;;;;5062197;28;20060;-43
2021/11/06 02:00:48;;;;;;;10.27;6.88;;;7.70;99.90;;;;;;5061343;28;20059;-42
2021/11/06 02:03:15;;;;;;;9.02;6.68;;;7.70;99.90;;;;;;5060294;28;20051;-43
2021/11/06 02:05:41;;;;;;;9.77;6.55;;;7.80;99.90;;;;;;5063962;28;20025;-43
2021/11/06 02:08:07;;;;;;;9.35;7.15;;;7.70;99.90;;;;;;5057307;28;20029;-43
2021/11/06 02:10:33;;;;;;;9.85;6.38;;;7.80;99.90;;;;;;5065279;28;20021;-43
2021/11/06 02:12:59;;;;;;;9.13;6.07;;;7.80;99.90;;;;;;5055681;28;20499;-43
2021/11/06 02:15:25;;;;;;;10.43;6.60;;;7.80;99.90;;;;;;5064856;28;20027;-42
2021/11/06 02:17:50;;;;;;;8.02;5.85;;;7.80;99.90;;;;;;5055785;28;20024;-44
2021/11/06 02:20:20;;;;;;;10.32;7.03;;;7.80;99.90;;;;;;5066859;28;20029;-43
2021/11/06 02:22:47;;;;;;;9.48;6.50;;;7.80;99.90;;;;;;5053039;28;20094;-43
2021/11/06 02:25:13;;;;;;;10.57;7.30;;;7.80;99.90;;;;;;5067407;28;20588;-43
2021/11/06 02:27:40;;;;;;;11.85;6.90;;;7.80;99.90;;;;;;5053470;28;20118;-43
2021/11/06 02:30:11;;;;;;;12.07;7.93;;;7.80;99.90;;;;;;5066598;28;20024;-44
2021/11/06 02:32:37;;;;;;;9.65;7.05;;;7.80;99.90;;;;;;5061445;28;20044;-43
2021/11/06 02:35:04;;;;;;;9.82;7.40;;;7.80;99.90;;;;;;5047413;28;20052;-42
2021/11/06 02:37:32;;;;;;;9.93;6.60;;;7.80;99.90;;;;;;5055327;28;20033;-43
2021/11/06 02:39:58;;;;;;;12.65;7.78;;;7.80;99.90;;;;;;5049405;28;20378;-43
2021/11/06 02:42:24;;;;;;;11.35;7.13;;;7.80;99.90;;;;;;5052815;28;20024;-42
2021/11/06 02:44:50;;;;;;;9.40;6.20;;;7.80;99.90;;;;;;5051470;28;20480;-44
2021/11/06 02:47:16;;;;;;;13.02;7.32;;;7.90;99.90;;;;;;5051150;28;20037;-43
2021/11/06 02:49:44;;;;;;;15.40;8.00;;;7.80;99.90;;;;;;5053871;28;20452;-44
2021/11/06 02:52:11;;;;;;;13.70;7.50;;;7.90;99.90;;;;;;5048355;28;20047;-43
2021/11/06 02:54:37;;;;;;;13.00;8.43;;;7.90;99.90;;;;;;5056471;28;20037;-43
2021/11/06 02:57:02;;;;;;;17.92;8.98;;;7.90;99.90;;;;;;5055497;28;20194;-43
2021/11/06 02:59:28;;;;;;;15.18;8.15;;;7.90;99.90;;;;;;5055309;28;20477;-44
2021/11/06 03:01:54;;;;;;;19.38;9.02;;;7.90;99.90;;;;;;5065387;28;20044;-43
2021/11/06 03:04:19;;;;;;;23.38;10.25;;;7.90;99.90;;;;;;5054233;28;20408;-43
2021/11/06 03:06:45;;;;;;;18.38;9.05;;;7.90;99.90;;;;;;5065762;28;20024;-43
2021/11/06 03:09:12;;;;;;;18.35;9.25;;;7.90;99.90;;;;;;5053275;28;20021;-43
2021/11/06 03:11:39;;;;;;;23.23;10.48;;;8.00;99.90;;;;;;5064940;28;20036;-43
2021/11/06 03:14:08;;;;;;;27.38;10.30;;;8.00;99.90;;;;;;5053875;28;20037;-44
2021/11/06 03:16:37;;;;;;;21.27;10.43;;;8.00;99.90;;;;;;5026063;28;20045;-44
2021/11/06 03:19:02;;;;;;;24.25;11.15;;;8.00;99.90;;;;;;5051204;28;20074;-44
2021/11/06 03:21:28;;;;;;;21.17;10.55;;;8.00;99.90;;;;;;5047812;28;20194;-44
2021/11/06 03:23:54;;;;;;;23.83;11.15;;;8.00;99.90;;;;;;5053724;28;20029;-44
2021/11/06 03:26:20;;;;;;;20.88;10.15;;;8.00;99.90;;;;;;5050459;28;20016;-43
2021/11/06 03:28:45;;;;;;;21.27;9.38;;;8.10;99.90;;;;;;5050548;28;20040;-43
2021/11/06 03:31:11;;;;;;;22.60;11.05;;;8.00;99.90;;;;;;5053481;28;20036;-42
2021/11/06 03:33:37;;;;;;;21.75;9.75;;;8.10;99.90;;;;;;5047813;28;20036;-43
2021/11/06 03:36:03;;;;;;;24.83;10.98;;;8.10;99.90;;;;;;5057881;28;20789;-42
2021/11/06 03:38:29;;;;;;;22.63;10.98;;;8.10;99.90;;;;;;5051396;28;20020;-43
2021/11/06 03:40:54;;;;;;;21.17;10.75;;;8.10;99.90;;;;;;5060321;28;20056;-43
2021/11/06 03:43:20;;;;;;;20.33;9.95;;;8.10;99.90;;;;;;5051378;28;20078;-47
2021/11/06 03:45:52;;;;;;;22.70;11.18;;;8.10;99.90;;;;;;5060847;28;20013;-43
2021/11/06 03:48:19;;;;;;;20.33;10.63;;;8.10;99.90;;;;;;5049750;28;20540;-44
2021/11/06 03:50:48;;;;;;;18.30;10.43;;;8.10;99.90;;;;;;5061658;28;20024;-43
2021/11/06 03:53:14;;;;;;;17.60;9.70;;;8.10;99.90;;;;;;5050037;28;20134;-43
2021/11/06 03:55:39;;;;;;;23.17;11.18;;;8.10;99.90;;;;;;5061330;28;20028;-43
2021/11/06 03:58:05;;;;;;;19.95;11.07;;;8.10;99.90;;;;;;5049717;28;20044;-44
2021/11/06 04:00:31;;;;;;;22.33;11.20;;;8.10;99.90;;;;;;5060461;28;20487;-44
2021/11/06 04:02:56;;;;;;;14.52;8.98;;;8.00;99.90;;;;;;5051000;28;20025;-43
2021/11/06 04:05:22;;;;;;;17.95;9.45;;;8.00;99.90;;;;;;5058097;28;20036;-43
2021/11/06 04:07:47;;;;;;;22.77;11.48;;;8.10;99.90;;;;;;5052382;28;20107;-43
2021/11/06 04:10:13;;;;;;;22.00;11.30;;;8.10;99.90;;;;;;5055820;28;20040;-43
2021/11/06 04:12:39;;;;;;;21.20;11.65;;;8.10;99.90;;;;;;5055710;28;20028;-44
2021/11/06 04:15:10;;;;;;;19.48;10.93;;;8.10;99.90;;;;;;5052396;28;20083;-43
2021/11/06 04:17:39;;;;;;;19.13;10.52;;;8.10;99.90;;;;;;5057951;28;20013;-43
2021/11/06 04:20:07;;;;;;;15.57;9.48;;;8.10;99.90;;;;;;5051561;28;20017;-43
2021/11/06 04:22:33;;;;;;;19.08;11.27;;;8.00;99.90;;;;;;5058345;28;20036;-43
2021/11/06 04:24:58;;;;;;;20.83;10.52;;;8.10;99.90;;;;;;5050879;28;20162;-43
2021/11/06 04:27:24;;;;;;;19.55;9.88;;;8.00;99.90;;;;;;5060279;28;20107;-44
2021/11/06 04:29:50;;;;;;;19.63;9.88;;;8.00;99.90;;;;;;5049254;28;20029;-44
2021/11/06 04:32:15;;;;;;;18.23;11.30;;;8.00;99.90;;;;;;5055341;28;20036;-42
2021/11/06 04:34:41;;;;;;;18.50;10.70;;;8.00;99.90;;;;;;5048424;28;20787;-43
2021/11/06 04:37:07;;;;;;;20.88;11.85;;;8.00;99.90;;;;;;5060697;28;20523;-43
2021/11/06 04:39:33;;;;;;;20.10;11.00;;;8.00;99.90;;;;;;5049265;28;20112;-43
2021/11/06 04:41:58;;;;;;;19.83;10.70;;;8.00;99.90;;;;;;5060491;28;20108;-43
2021/11/06 04:44:24;;;;;;;19.48;9.60;;;8.00;99.90;;;;;;5048719;28;20040;-43
2021/11/06 04:46:52;;;;;;;19.40;11.15;;;7.90;99.90;;;;;;5057788;28;20021;-43
2021/11/06 04:49:21;;;;;;;17.38;10.57;;;8.00;99.90;;;;;;5051611;28;20479;-42
2021/11/06 04:51:46;;;;;;;20.15;10.32;;;8.00;99.90;;;;;;5055119;28;20043;-43
2021/11/06 04:54:12;;;;;;;19.77;10.48;;;8.00;99.90;;;;;;5054132;28;20021;-42
2021/11/06 04:56:37;;;;;;;21.70;11.75;;;8.00;99.90;;;;;;5052510;28;20059;-43
2021/11/06 04:59:04;;;;;;;21.30;12.48;;;8.00;99.90;;;;;;5056374;28;20396;-42
2021/11/06 05:01:29;;;;;;;21.88;12.50;;;7.90;99.90;;;;;;5050577;28;20028;-43
2021/11/06 05:03:55;;;;;;;21.95;11.85;;;7.90;99.90;;;;;;5057821;28;20543;-42
2021/11/06 05:06:21;;;;;;;19.52;11.77;;;7.90;99.90;;;;;;5049995;28;20035;-42
2021/11/06 05:08:46;;;;;;;21.88;11.90;;;7.90;99.90;;;;;;5059732;28;20024;-43
2021/11/06 05:11:12;;;;;;;20.23;11.27;;;7.90;99.90;;;;;;5048620;28;20025;-43
2021/11/06 05:13:37;;;;;;;21.23;11.93;;;7.90;99.90;;;;;;5059876;28;20123;-44
2021/11/06 05:16:03;;;;;;;17.90;10.75;;;7.90;99.90;;;;;;5048076;28;20086;-43
2021/11/06 05:18:29;;;;;;;22.33;12.30;;;7.90;99.90;;;;;;5059813;28;20039;-42
2021/11/06 05:20:54;;;;;;;17.10;10.32;;;8.00;99.90;;;;;;5048142;28;20469;-44
2021/11/06 05:23:20;;;;;;;18.70;10.13;;;8.00;99.90;;;;;;5060426;28;20537;-44
2021/11/06 05:25:46;;;;;;;19.38;11.55;;;8.00;99.90;;;;;;5047656;28;20029;-43
2021/11/06 05:28:13;;;;;;;16.42;10.38;;;8.00;99.90;;;;;;5057058;28;21090;-43
2021/11/06 05:30:39;;;;;;;19.40;11.15;;;8.00;99.90;;;;;;5050512;28;20126;-43
2021/11/06 05:33:05;;;;;;;20.67;12.18;;;8.00;99.90;;;;;;5051414;28;20492;-45
2021/11/06 05:35:31;;;;;;;18.65;11.20;;;8.00;99.90;;;;;;5061939;28;20028;-43
2021/11/06 05:37:57;;;;;;;24.55;12.38;;;8.00;99.90;;;;;;5062958;28;20032;-43
2021/11/06 05:40:25;;;;;;;16.65;11.93;;;8.00;99.90;;;;;;5059397;28;20048;-44
2021/11/06 05:42:51;;;;;;;26.50;12.65;;;8.00;99.90;;;;;;5065242;28;20020;-43
2021/11/06 05:45:17;;;;;;;23.05;13.45;;;8.00;99.90;;;;;;5057510;28;20025;-43
2021/11/06 05:47:43;;;;;;;19.70;12.15;;;8.00;99.90;;;;;;5064736;28;20473;-43
2021/11/06 05:50:11;;;;;;;19.38;11.50;;;8.00;99.90;;;;;;5056992;28;20032;-44
2021/11/06 05:52:37;;;;;;;19.75;11.98;;;8.00;99.90;;;;;;5066209;28;20057;-43
2021/11/06 05:55:05;;;;;;;18.67;11.98;;;8.00;99.90;;;;;;5055366;28;20024;-44
2021/11/06 05:57:32;;;;;;;19.95;13.07;;;8.00;99.90;;;;;;5066840;28;20063;-43
2021/11/06 05:59:58;;;;;;;21.20;12.98;;;8.00;99.90;;;;;;5053283;28;20029;-42
2021/11/06 06:02:24;;;;;;;18.17;12.18;;;8.00;99.90;;;;;;5067128;28;20407;-43
2021/11/06 06:04:49;;;;;;;18.75;12.73;;;8.00;99.90;;;;;;5054587;28;20033;-43
2021/11/06 06:07:15;;;;;;;17.73;12.73;;;8.00;99.90;;;;;;5067152;28;20468;-43
2021/11/06 06:09:40;;;;;;;18.75;12.77;;;8.00;99.90;;;;;;5056665;28;20017;-43
2021/11/06 06:12:07;;;;;;;19.52;13.02;;;8.00;99.90;;;;;;5064812;28;20051;-43
2021/11/06 06:14:32;;;;;;;17.35;12.90;;;8.00;99.90;;;;;;5058621;28;20074;-42
2021/11/06 06:16:58;;;;;;;18.65;12.68;;;8.00;99.90;;;;;;5061898;28;20029;-42
2021/11/06 06:19:23;;;;;;;22.33;14.13;;;8.00;99.90;;;;;;5062323;28;20032;-43
2021/11/06 06:21:49;;;;;;;18.85;12.00;;;8.10;99.90;;;;;;5058588;28;20063;-43
2021/11/06 06:24:14;;;;;;;20.73;13.77;;;8.10;99.90;;;;;;5064503;28;20089;-43
2021/11/06 06:26:40;;;;;;;21.17;14.10;;;8.00;99.90;;;;;;5056506;28;20021;-43
2021/11/06 06:29:06;;;;;;;22.42;14.27;;;8.10;99.90;;;;;;5065170;28;20032;-43
2021/11/06 06:31:31;;;;;;;20.00;12.55;;;8.10;99.90;;;;;;5051022;28;20025;-43
2021/11/06 06:33:57;;;;;;;18.40;12.82;;;8.10;99.90;;;;;;5047356;28;20385;-43
2021/11/06 06:36:22;;;;;;;19.00;13.25;;;8.10;99.90;;;;;;5054067;28;20388;-43
2021/11/06 06:38:48;;;;;;;20.00;12.93;;;8.10;99.90;;;;;;5066410;28;20031;-43
2021/11/06 06:41:15;;;;;;;18.75;13.50;;;8.10;99.90;;;;;;5052089;28;20033;-43
2021/11/06 06:43:41;;;;;;;20.50;13.20;;;8.10;99.90;;;;;;5065763;28;20029;-42
2021/11/06 06:46:09;;;;;;;21.35;14.43;;;8.10;99.90;;;;;;5054354;28;20032;-44
2021/11/06 06:48:35;;;;;;;18.95;14.55;;;8.10;99.90;;;;;;5066145;28;20024;-43
2021/11/06 06:51:00;;;;;;;21.20;14.10;;;8.10;99.90;;;;;;5055937;28;20044;-44
2021/11/06 06:53:26;;;;;;;19.05;12.82;;;8.00;99.90;;;;;;5063325;28;20078;-44
2021/11/06 06:55:51;;;;;;;18.33;13.00;;;8.10;99.90;;;;;;5059016;28;20027;-43
2021/11/06 06:58:18;;;;;;;18.35;12.43;;;8.10;99.90;;;;;;5060589;28;20456;-43
2021/11/06 07:00:47;;;;;;;17.90;12.48;;;8.10;99.90;;;;;;5060938;28;20172;-43
2021/11/06 07:03:12;;;;;;;18.02;12.50;;;8.10;99.90;;;;;;5058738;28;20074;-42
2021/11/06 07:05:38;;;;;;;17.67;13.27;;;8.10;99.90;;;;;;5063453;28;20024;-43
2021/11/06 07:08:05;;;;;;;17.92;13.73;;;8.10;99.90;;;;;;5056243;28;20039;-43
2021/11/06 07:10:32;;;;;;;17.20;12.65;;;8.10;99.90;;;;;;5064509;28;20269;-43
2021/11/06 07:13:01;;;;;;;16.40;12.55;;;8.10;99.90;;;;;;5054304;28;20023;-43
2021/11/06 07:15:26;;;;;;;16.52;12.15;;;8.20;99.90;;;;;;5064820;28;20479;-44
2021/11/06 07:17:52;;;;;;;18.77;13.02;;;8.20;99.90;;;;;;5054240;28;20024;-42
2021/11/06 07:20:20;;;;;;;17.85;13.52;;;8.20;99.90;;;;;;5066715;28;20016;-43
2021/11/06 07:22:46;;;;;;;20.92;14.18;;;8.20;99.90;;;;;;5052812;28;20028;-43
2021/11/06 07:25:15;;;;;;;17.65;12.38;;;8.20;99.90;;;;;;5065999;28;20056;-44
2021/11/06 07:27:40;;;;;;;15.38;12.52;;;8.20;99.90;;;;;;5052815;28;20075;-42
2021/11/06 07:30:08;;;;;;;19.90;13.63;;;8.20;99.90;;;;;;5066287;28;20024;-43
2021/11/06 07:32:34;;;;;;;19.25;13.00;;;8.20;99.90;;;;;;5051326;28;20037;-43
2021/11/06 07:35:00;;;;;;;20.00;14.05;;;8.30;99.90;;;;;;5064660;28;20027;-44
2021/11/06 07:37:25;;;;;;;20.02;14.88;;;8.30;99.90;;;;;;5056967;28;20033;-43
2021/11/06 07:39:54;;;;;;;21.08;15.15;;;8.20;99.90;;;;;;5052743;28;20029;-43
2021/11/06 07:42:19;;;;;;;17.45;13.32;;;8.20;99.90;;;;;;5051416;28;20514;-43
2021/11/06 07:44:45;;;;;;;17.98;13.50;;;8.20;99.90;;;;;;5050867;28;20037;-43
2021/11/06 07:47:10;;;;;;;17.00;13.25;;;8.30;99.90;;;;;;5048541;28;20079;-43
2021/11/06 07:49:36;;;;;;;19.65;14.00;;;8.30;99.90;;;;;;5053463;28;20116;-44
2021/11/06 07:52:02;;;;;;;18.40;13.13;;;8.30;99.90;;;;;;5046483;28;20072;-43
2021/11/06 07:54:28;;;;;;;16.92;12.13;;;8.30;99.90;;;;;;5055711;28;20039;-43
2021/11/06 07:56:54;;;;;;;16.65;12.40;;;8.30;99.90;;;;;;5053817;28;20114;-44
2021/11/06 07:59:20;;;;;;;15.52;11.25;;;8.30;99.90;;;;;;5054444;28;20086;-44
2021/11/06 08:01:46;;;;;;;20.02;12.48;;;8.40;99.90;;;;;;5063730;28;20025;-44
2021/11/06 08:04:12;;;;;;;17.73;12.25;;;8.40;99.90;;;;;;5052912;28;20019;-43
2021/11/06 08:06:37;;;;;;;16.52;11.65;;;8.40;99.90;;;;;;5064553;28;20542;-43
2021/11/06 08:09:04;;;;;;;14.23;11.30;;;8.40;99.90;;;;;;5052294;28;20124;-44
2021/11/06 08:11:33;;;;;;;17.42;12.98;;;8.50;99.90;;;;;;5065050;28;20111;-43
2021/11/06 08:13:58;;;;;;;18.05;13.50;;;8.50;99.90;;;;;;5052942;28;20362;-44
2021/11/06 08:16:24;;;;;;;16.33;12.55;;;8.50;99.90;;;;;;5063821;28;20032;-42
2021/11/06 08:18:53;;;;;;;16.17;12.10;;;8.60;99.90;;;;;;5056198;28;20021;-43
2021/11/06 08:21:18;;;;;;;15.55;11.32;;;8.70;99.90;;;;;;5062340;28;20559;-43
2021/11/06 08:23:44;;;;;;;20.08;12.93;;;8.80;99.90;;;;;;5061865;28;20029;-43
2021/11/06 08:26:13;;;;;;;12.98;11.05;;;8.90;99.90;;;;;;5062389;28;20657;-42
2021/11/06 08:28:38;;;;;;;13.43;11.23;;;8.90;99.90;;;;;;5063156;28;20510;-44
2021/11/06 08:31:06;;;;;;;19.05;11.23;;;9.00;99.90;;;;;;5060259;28;20041;-43
2021/11/06 08:33:32;;;;;;;13.55;9.90;;;9.00;99.90;;;;;;5036993;28;20039;-43
2021/11/06 08:35:59;;;;;;;14.48;10.50;;;9.00;99.90;;;;;;5057795;28;20992;-43
2021/11/06 08:38:27;;;;;;;17.40;12.77;;;9.00;99.90;;;;;;5049657;28;20021;-43
2021/11/06 08:40:53;;;;;;;17.38;12.52;;;9.10;99.90;;;;;;5059349;28;20009;-42
2021/11/06 08:43:18;;;;;;;14.60;10.55;;;9.00;99.90;;;;;;5048629;28;20044;-42
2021/11/06 08:45:46;;;;;;;16.60;11.02;;;9.10;99.90;;;;;;5058989;28;20021;-43
2021/11/06 08:48:12;;;;;;;13.63;9.85;;;9.10;99.90;;;;;;5048838;28;20939;-42
2021/11/06 08:50:38;;;;;;;14.07;10.43;;;9.10;99.90;;;;;;5053519;28;20029;-43
2021/11/06 08:53:04;;;;;;;16.42;11.45;;;9.20;99.90;;;;;;5068357;28;20110;-42
2021/11/06 08:55:30;;;;;;;13.65;9.63;;;9.20;99.90;;;;;;5056099;28;20108;-43
2021/11/06 08:57:57;;;;;;;15.35;10.40;;;9.20;99.90;;;;;;5068149;28;20131;-43
2021/11/06 09:00:32;;;;;;;16.67;11.30;;;9.20;99.90;;;;;;5058233;28;20021;-43
2021/11/06 09:03:04;;;;;;;13.75;10.25;;;9.30;99.90;;;;;;5066693;28;20021;-43
2021/11/06 09:05:30;;;;;;;12.50;9.70;;;9.30;99.90;;;;;;5058593;28;20476;-43
2021/11/06 09:07:58;;;;;;;15.98;11.23;;;9.30;99.90;;;;;;5066018;28;20380;-43
2021/11/06 09:10:24;;;;;;;14.07;10.00;;;9.40;99.90;;;;;;5060269;28;20460;-43
2021/11/06 09:12:50;;;;;;;12.82;9.90;;;9.40;99.90;;;;;;5063506;28;20169;-43
2021/11/06 09:15:16;;;;;;;11.23;9.75;;;9.40;99.90;;;;;;5063639;28;20487;-43
2021/11/06 09:17:41;;;;;;;12.02;9.73;;;9.50;99.90;;;;;;5059310;28;20106;-43
2021/11/06 09:20:08;;;;;;;12.60;9.73;;;9.40;99.90;;;;;;5065992;28;20460;-42
2021/11/06 09:22:35;;;;;;;14.63;10.15;;;9.50;99.90;;;;;;5058589;28;20487;-43
2021/11/06 09:25:02;;;;;;;15.65;10.82;;;9.50;99.90;;;;;;5066045;28;20059;-44
2021/11/06 09:27:27;;;;;;;14.65;9.55;;;9.50;99.90;;;;;;5056686;28;20111;-43
2021/11/06 09:29:53;;;;;;;12.48;9.00;;;9.50;99.90;;;;;;5061406;28;20376;-44
2021/11/06 09:32:19;;;;;;;12.35;9.15;;;9.50;99.90;;;;;;5057943;28;20040;-44
2021/11/06 09:34:49;;;;;;;14.60;9.23;;;9.60;99.90;;;;;;5067293;28;20029;-42
2021/11/06 09:37:14;;;;;;;10.45;8.18;;;9.60;99.90;;;;;;5055492;28;20078;-43
2021/11/06 09:39:42;;;;;;;13.23;8.38;;;9.60;99.90;;;;;;5067131;28;20025;-44
2021/11/06 09:42:08;;;;;;;11.80;8.68;;;9.60;99.90;;;;;;5055311;28;20103;-43
2021/11/06 09:44:35;;;;;;;13.95;8.80;;;9.70;99.90;;;;;;5068097;28;20032;-43
2021/11/06 09:47:05;;;;;;;12.18;8.38;;;9.70;99.90;;;;;;5055233;28;20024;-43
2021/11/06 09:49:31;;;;;;;10.43;8.13;;;9.80;99.90;;;;;;5066355;28;20029;-43
2021/11/06 09:51:56;;;;;;;12.63;7.95;;;9.90;99.90;;;;;;5057959;28;20040;-43
2021/11/06 09:54:22;;;;;;;10.73;7.68;;;9.90;99.90;;;;;;5064216;28;20035;-43
2021/11/06 09:56:48;;;;;;;12.15;9.20;;;10.00;99.90;;;;;;5060928;28;20047;-43
2021/11/06 09:59:13;;;;;;;10.52;7.63;;;10.00;99.90;;;;;;5060769;28;20024;-43
2021/11/06 10:01:39;;;;;;;12.60;8.48;;;10.10;99.90;;;;;;5063877;28;20445;-43
2021/11/06 10:04:07;;;;;;;11.45;8.25;;;10.10;99.90;;;;;;5057966;28;20063;-43
2021/11/06 10:06:34;;;;;;;12.82;8.30;;;10.10;99.90;;;;;;5065690;28;20016;-42
2021/11/06 10:09:00;;;;;;;9.35;7.05;;;10.20;99.90;;;;;;5044971;28;20377;-44
2021/11/06 10:11:28;;;;;;;11.70;7.45;;;10.20;99.90;;;;;;5065857;28;20024;-43
2021/11/06 10:14:03;;;;;;;8.98;6.90;;;10.20;99.90;;;;;;5055274;28;20428;-43
2021/11/06 10:16:38;;;;;;;10.25;6.65;;;10.30;99.90;;;;;;5062544;28;20055;-43
2021/11/06 10:19:21;;;;;;;10.65;7.47;;;10.30;99.90;;;;;;5058668;28;20021;-43
2021/11/06 10:22:03;;;;;;;10.23;6.95;;;10.40;99.90;;;;;;5047797;28;20021;-43
2021/11/06 10:24:42;;;;;;;10.52;7.15;;;10.40;99.90;;;;;;5058617;28;20024;-43
2021/11/06 10:27:21;;;;;;;10.82;7.05;;;10.40;99.90;;;;;;5047982;28;20036;-43
2021/11/06 10:30:08;;;;;;;8.10;5.93;;;10.40;99.90;;;;;;5045967;28;20017;-43
2021/11/06 10:32:35;;;;;;;9.13;6.85;;;10.50;99.90;;;;;;5056408;28;20031;-43
2021/11/06 10:35:11;;;;;;;8.98;6.60;;;10.50;99.90;;;;;;5056400;28;20039;-42
2021/11/06 10:37:37;;;;;;;11.00;6.38;;;10.50;99.90;;;;;;5065352;28;20025;-43
2021/11/06 10:40:03;;;;;;;8.93;6.68;;;10.60;99.90;;;;;;5055451;28;20037;-43
2021/11/06 10:42:29;;;;;;;8.00;6.68;;;10.60;99.90;;;;;;5064591;28;20050;-43
2021/11/06 10:45:11;;;;;;;7.75;5.90;;;10.60;99.90;;;;;;5055254;28;20063;-42
2021/11/06 10:48:01;;;;;;;8.52;6.15;;;10.70;99.90;;;;;;5063623;28;20032;-42
2021/11/06 10:50:58;;;;;;;6.90;5.18;;;10.70;99.90;;;;;;5044593;28;20039;-42
2021/11/06 10:53:42;;;;;;;8.38;5.97;;;10.80;99.90;;;;;;5062290;28;20685;-43
2021/11/06 10:56:16;;;;;;;8.05;5.70;;;10.90;99.90;;;;;;5059527;28;20040;-43
2021/11/06 10:58:43;;;;;;;7.20;5.32;;;10.90;99.90;;;;;;5061013;28;20151;-42
2021/11/06 11:01:23;;;;;;;6.63;5.28;;;11.00;99.90;;;;;;5058822;28;20024;-43
2021/11/06 11:03:55;;;;;;;7.72;5.65;;;11.00;99.90;;;;;;5061634;28;20025;-43
2021/11/06 11:06:28;;;;;;;7.28;5.50;;;11.10;99.90;;;;;;5058832;28;20070;-43
2021/11/06 11:08:55;;;;;;;7.47;5.05;;;11.10;99.90;;;;;;5062945;28;20029;-43
2021/11/06 11:11:24;;;;;;;8.23;5.38;;;11.20;99.90;;;;;;5057365;28;20021;-43
2021/11/06 11:14:14;;;;;;;7.80;5.63;;;11.20;99.90;;;;;;5064516;28;20419;-43
2021/11/06 11:17:04;;;;;;;6.43;4.60;;;11.30;99.90;;;;;;5059176;28;20024;-44
2021/11/06 11:19:32;;;;;;;6.78;4.78;;;11.30;99.90;;;;;;5062361;28;20427;-44
2021/11/06 11:21:58;;;;;;;5.45;4.70;;;11.30;99.90;;;;;;5060140;28;20596;-44
2021/11/06 11:24:24;;;;;;;6.88;4.75;;;11.30;99.90;;;;;;5054756;28;20511;-43
2021/11/06 11:26:52;;;;;;;5.30;4.30;;;11.40;99.90;;;;;;5055033;28;20029;-44
2021/11/06 11:29:24;;;;;;;6.30;5.15;;;11.40;99.90;;;;;;5047448;28;20021;-43
2021/11/06 11:31:50;;;;;;;7.40;5.40;;;11.40;99.90;;;;;;5036050;28;20546;-43
2021/11/06 11:34:18;;;;;;;7.65;5.35;;;11.40;99.90;;;;;;5047647;28;20085;-43
2021/11/06 11:36:45;;;;;;;8.90;5.07;;;11.50;99.90;;;;;;5059093;28;20350;-43
2021/11/06 11:39:13;;;;;;;6.70;4.65;;;11.50;99.90;;;;;;5046289;28;20043;-43
2021/11/06 11:41:44;;;;;;;6.57;5.28;;;11.50;99.90;;;;;;5056882;28;20037;-43
2021/11/06 11:44:28;;;;;;;9.02;5.57;;;11.50;99.90;;;;;;5045710;28;20033;-43
2021/11/06 11:47:08;;;;;;;6.07;4.10;;;11.50;99.90;;;;;;5056608;28;20024;-44
2021/11/06 11:49:38;;;;;;;5.95;4.90;;;11.50;99.90;;;;;;5047298;28;20679;-43
2021/11/06 11:52:25;;;;;;;5.45;4.60;;;11.60;99.90;;;;;;5053405;28;20131;-43
2021/11/06 11:55:17;;;;;;;7.78;4.63;;;11.60;99.90;;;;;;5046822;28;20029;-43
2021/11/06 11:58:02;;;;;;;5.45;4.32;;;11.60;99.90;;;;;;5048356;28;20040;-42
2021/11/06 12:00:27;;;;;;;5.93;4.90;;;11.60;99.90;;;;;;5066570;28;20039;-43
2021/11/06 12:03:01;;;;;;;6.88;5.30;;;11.60;99.90;;;;;;5059124;28;20532;-43
2021/11/06 12:05:30;;;;;;;6.88;4.95;;;11.50;99.90;;;;;;5067916;28;20547;-43
2021/11/06 12:08:15;;;;;;;5.80;4.68;;;11.50;99.90;;;;;;5057841;28;20018;-43
2021/11/06 12:10:42;;;;;;;7.40;5.57;;;11.60;99.90;;;;;;5067714;28;20092;-43
2021/11/06 12:13:30;;;;;;;5.20;4.47;;;11.60;99.90;;;;;;5046793;28;20422;-43
2021/11/06 12:15:59;;;;;;;7.30;5.32;;;11.70;99.90;;;;;;5067555;28;20028;-43
2021/11/06 12:18:36;;;;;;;6.18;4.57;;;11.80;99.90;;;;;;5058958;28;20040;-43
2021/11/06 12:21:14;;;;;;;6.03;4.97;;;11.80;99.90;;;;;;5067196;28;20027;-42
2021/11/06 12:23:42;;;;;;;6.07;4.95;;;11.90;99.90;;;;;;5049988;28;20052;-44
2021/11/06 12:26:31;;;;;;;6.07;4.85;;;12.00;99.90;;;;;;5067855;28;20044;-43
2021/11/06 12:29:13;;;;;;;6.38;5.20;;;12.10;99.90;;;;;;5051493;28;20052;-43
2021/11/06 12:31:47;;;;;;;5.93;4.93;;;12.10;99.90;;;;;;5064489;28;20423;-43
2021/11/06 12:34:43;;;;;;;6.95;4.72;;;12.10;99.90;;;;;;5060473;28;20041;-43
2021/11/06 12:37:12;;;;;;;5.50;4.75;;;12.20;99.90;;;;;;5062767;28;20891;-43
2021/11/06 12:39:54;;;;;;;8.20;5.60;;;12.10;99.90;;;;;;5063315;28;20421;-44
2021/11/06 12:42:23;;;;;;;7.57;4.93;;;12.10;99.90;;;;;;5062026;28;20495;-43
2021/11/06 12:44:53;;;;;;;6.45;5.30;;;12.10;99.90;;;;;;5063379;28;20024;-43
2021/11/06 12:47:19;;;;;;;5.63;5.03;;;12.00;99.90;;;;;;5064319;28;20029;-44